Terminal Aerodrome Forecast
Issued by NWS Wilmington, NC

Home | Current Version | Previous Version | Text Only | Print | Product List | Glossary On
Versions: 1 2 3 4 5 6 7 8 9 10 11 12 13 14 15 16 17 18 19 20 21 22 23 24 25 26
000
FTUS42 KILM 041700
TAFLBT
TAF
KLBT 041721Z 0418/0518 22011G19KT P6SM FEW008 BKN050
     FM050000 22011KT P6SM SCT100 SCT250
     FM050600 22008KT 3SM BR BKN003
     FM051400 24011G18KT 4SM BR VCSH OVC007=

USA.gov is the U.S. government's official web portal to all federal, state and local government web resources and services.